sensor_id;sensor_type;location;lat;lon;timestamp;pressure;altitude;pressure_sealevel;temperature;humidity
27146;BME280;17980;51.744;7.190;2022-08-21T00:01:12;101249.28;;;21.64;80.75
27146;BME280;17980;51.744;7.190;2022-08-21T00:03:40;101240.42;;;21.71;80.28
27146;BME280;17980;51.744;7.190;2022-08-21T00:06:07;101242.24;;;21.68;80.15
27146;BME280;17980;51.744;7.190;2022-08-21T00:08:35;101229.21;;;21.62;80.38
27146;BME280;17980;51.744;7.190;2022-08-21T00:13:40;101230.91;;;21.56;80.96
27146;BME280;17980;51.744;7.190;2022-08-21T00:16:08;101229.63;;;21.52;80.81
27146;BME280;17980;51.744;7.190;2022-08-21T00:18:35;101225.88;;;21.56;80.93
27146;BME280;17980;51.744;7.190;2022-08-21T00:21:04;101224.74;;;21.43;81.42
27146;BME280;17980;51.744;7.190;2022-08-21T00:23:40;101229.87;;;21.40;81.51
27146;BME280;17980;51.744;7.190;2022-08-21T00:26:08;101224.03;;;21.14;82.42
27146;BME280;17980;51.744;7.190;2022-08-21T00:31:12;101224.30;;;21.02;83.07
27146;BME280;17980;51.744;7.190;2022-08-21T00:33:40;101220.65;;;20.95;83.62
27146;BME280;17980;51.744;7.190;2022-08-21T00:36:09;101214.89;;;20.96;83.76
27146;BME280;17980;51.744;7.190;2022-08-21T00:38:37;101218.75;;;20.95;83.99
27146;BME280;17980;51.744;7.190;2022-08-21T00:43:43;101219.42;;;21.04;83.80
27146;BME280;17980;51.744;7.190;2022-08-21T00:46:11;101217.28;;;21.00;83.60
27146;BME280;17980;51.744;7.190;2022-08-21T00:48:39;101225.94;;;21.07;83.69
27146;BME280;17980;51.744;7.190;2022-08-21T00:51:10;101217.79;;;20.99;84.16
27146;BME280;17980;51.744;7.190;2022-08-21T00:53:40;101223.34;;;20.99;84.01
27146;BME280;17980;51.744;7.190;2022-08-21T00:56:10;101228.38;;;21.00;84.36
27146;BME280;17980;51.744;7.190;2022-08-21T01:01:17;101228.74;;;21.14;83.78
27146;BME280;17980;51.744;7.190;2022-08-21T01:03:45;101229.92;;;21.15;83.42
27146;BME280;17980;51.744;7.190;2022-08-21T01:06:13;101223.25;;;21.03;83.97
27146;BME280;17980;51.744;7.190;2022-08-21T01:08:44;101219.75;;;21.05;83.84
27146;BME280;17980;51.744;7.190;2022-08-21T01:13:51;101221.07;;;20.68;85.83
27146;BME280;17980;51.744;7.190;2022-08-21T01:16:20;101219.14;;;20.68;85.80
27146;BME280;17980;51.744;7.190;2022-08-21T01:18:50;101224.52;;;20.59;86.21
27146;BME280;17980;51.744;7.190;2022-08-21T01:23:57;101225.98;;;20.72;85.72
27146;BME280;17980;51.744;7.190;2022-08-21T01:26:28;101222.63;;;20.66;85.96
27146;BME280;17980;51.744;7.190;2022-08-21T01:31:34;101227.80;;;20.69;86.13
27146;BME280;17980;51.744;7.190;2022-08-21T01:34:02;101230.39;;;20.60;86.52
27146;BME280;17980;51.744;7.190;2022-08-21T01:36:30;101231.78;;;20.60;86.63
27146;BME280;17980;51.744;7.190;2022-08-21T01:38:57;101232.91;;;20.55;87.29
27146;BME280;17980;51.744;7.190;2022-08-21T01:44:02;101229.80;;;20.54;87.02
27146;BME280;17980;51.744;7.190;2022-08-21T01:46:30;101232.12;;;20.33;87.79
27146;BME280;17980;51.744;7.190;2022-08-21T01:48:57;101230.77;;;20.50;87.13
27146;BME280;17980;51.744;7.190;2022-08-21T01:51:26;101233.12;;;20.53;86.86
27146;BME280;17980;51.744;7.190;2022-08-21T01:53:53;101226.87;;;20.62;86.56
27146;BME280;17980;51.744;7.190;2022-08-21T01:56:20;101222.03;;;20.53;86.48
27146;BME280;17980;51.744;7.190;2022-08-21T01:58:48;101225.34;;;20.53;86.87
27146;BME280;17980;51.744;7.190;2022-08-21T02:01:15;101216.10;;;20.45;87.12
27146;BME280;17980;51.744;7.190;2022-08-21T02:03:43;101213.48;;;20.20;88.23
27146;BME280;17980;51.744;7.190;2022-08-21T02:06:15;101208.62;;;20.22;88.45
27146;BME280;17980;51.744;7.190;2022-08-21T02:08:44;101210.41;;;20.19;88.28
27146;BME280;17980;51.744;7.190;2022-08-21T02:13:49;101216.10;;;20.10;89.47
27146;BME280;17980;51.744;7.190;2022-08-21T02:16:16;101208.50;;;20.08;89.20
27146;BME280;17980;51.744;7.190;2022-08-21T02:18:43;101210.01;;;19.83;90.25
27146;BME280;17980;51.744;7.190;2022-08-21T02:21:11;101215.00;;;19.83;91.11
27146;BME280;17980;51.744;7.190;2022-08-21T02:23:38;101213.77;;;19.42;92.66
27146;BME280;17980;51.744;7.190;2022-08-21T02:26:07;101210.66;;;19.41;93.28
27146;BME280;17980;51.744;7.190;2022-08-21T02:28:38;101207.03;;;19.52;92.89
27146;BME280;17980;51.744;7.190;2022-08-21T02:31:06;101213.37;;;19.56;92.42
27146;BME280;17980;51.744;7.190;2022-08-21T02:33:34;101208.48;;;19.69;91.49
27146;BME280;17980;51.744;7.190;2022-08-21T02:36:02;101206.50;;;19.63;91.61
27146;BME280;17980;51.744;7.190;2022-08-21T02:38:32;101207.51;;;19.66;91.47
27146;BME280;17980;51.744;7.190;2022-08-21T02:41:01;101206.30;;;19.65;91.30
27146;BME280;17980;51.744;7.190;2022-08-21T02:43:28;101205.38;;;19.68;91.58
27146;BME280;17980;51.744;7.190;2022-08-21T02:45:57;101208.48;;;19.58;91.57
27146;BME280;17980;51.744;7.190;2022-08-21T02:51:05;101204.47;;;19.61;91.62
27146;BME280;17980;51.744;7.190;2022-08-21T02:53:34;101209.29;;;19.52;91.92
27146;BME280;17980;51.744;7.190;2022-08-21T02:56:06;101200.72;;;19.58;91.60
27146;BME280;17980;51.744;7.190;2022-08-21T02:58:35;101204.28;;;19.41;91.53
27146;BME280;17980;51.744;7.190;2022-08-21T03:01:06;101206.98;;;19.45;91.08
27146;BME280;17980;51.744;7.190;2022-08-21T03:06:14;101205.58;;;19.56;89.33
27146;BME280;17980;51.744;7.190;2022-08-21T03:08:42;101209.86;;;19.26;91.72
27146;BME280;17980;51.744;7.190;2022-08-21T03:13:49;101204.86;;;19.47;92.13
27146;BME280;17980;51.744;7.190;2022-08-21T03:16:16;101200.84;;;19.50;91.88
27146;BME280;17980;51.744;7.190;2022-08-21T03:21:22;101200.69;;;19.69;91.25
27146;BME280;17980;51.744;7.190;2022-08-21T03:23:50;101203.42;;;19.62;91.14
27146;BME280;17980;51.744;7.190;2022-08-21T03:26:17;101193.33;;;19.54;91.47
27146;BME280;17980;51.744;7.190;2022-08-21T03:31:22;101191.08;;;19.43;92.22
27146;BME280;17980;51.744;7.190;2022-08-21T03:33:49;101194.97;;;19.27;92.80
27146;BME280;17980;51.744;7.190;2022-08-21T03:36:17;101194.84;;;19.24;93.21
27146;BME280;17980;51.744;7.190;2022-08-21T03:38:44;101189.16;;;19.22;93.38
27146;BME280;17980;51.744;7.190;2022-08-21T03:43:49;101187.98;;;19.42;92.55
27146;BME280;17980;51.744;7.190;2022-08-21T03:46:16;101193.00;;;19.32;92.59
27146;BME280;17980;51.744;7.190;2022-08-21T03:48:43;101193.80;;;19.25;92.85
27146;BME280;17980;51.744;7.190;2022-08-21T03:51:10;101189.42;;;19.16;93.44
27146;BME280;17980;51.744;7.190;2022-08-21T03:53:38;101197.92;;;19.15;93.57
27146;BME280;17980;51.744;7.190;2022-08-21T03:56:07;101193.57;;;19.16;93.35
27146;BME280;17980;51.744;7.190;2022-08-21T04:01:11;101188.72;;;19.18;93.15
27146;BME280;17980;51.744;7.190;2022-08-21T04:03:39;101191.26;;;19.09;93.19
27146;BME280;17980;51.744;7.190;2022-08-21T04:06:08;101195.21;;;19.00;93.09
27146;BME280;17980;51.744;7.190;2022-08-21T04:08:35;101200.01;;;19.02;93.00
27146;BME280;17980;51.744;7.190;2022-08-21T04:13:41;101205.48;;;19.06;92.71
27146;BME280;17980;51.744;7.190;2022-08-21T04:16:08;101207.16;;;19.11;91.93
27146;BME280;17980;51.744;7.190;2022-08-21T04:18:36;101204.70;;;19.01;91.84
27146;BME280;17980;51.744;7.190;2022-08-21T04:21:04;101204.13;;;18.91;92.55
27146;BME280;17980;51.744;7.190;2022-08-21T04:23:33;101207.44;;;18.75;92.82
27146;BME280;17980;51.744;7.190;2022-08-21T04:26:00;101213.37;;;18.68;93.60
27146;BME280;17980;51.744;7.190;2022-08-21T04:31:05;101213.16;;;18.29;96.34
27146;BME280;17980;51.744;7.190;2022-08-21T04:33:33;101213.85;;;18.27;96.57
27146;BME280;17980;51.744;7.190;2022-08-21T04:36:00;101215.64;;;18.39;95.44
27146;BME280;17980;51.744;7.190;2022-08-21T04:38:30;101215.91;;;18.44;95.33
27146;BME280;17980;51.744;7.190;2022-08-21T04:43:36;101207.50;;;18.41;95.72
27146;BME280;17980;51.744;7.190;2022-08-21T04:46:05;101215.80;;;18.41;95.03
27146;BME280;17980;51.744;7.190;2022-08-21T04:48:35;101215.80;;;18.41;95.17
27146;BME280;17980;51.744;7.190;2022-08-21T04:53:48;101216.72;;;18.79;93.10
27146;BME280;17980;51.744;7.190;2022-08-21T04:56:19;101217.91;;;18.80;92.67
27146;BME280;17980;51.744;7.190;2022-08-21T05:01:27;101216.13;;;18.68;92.99
27146;BME280;17980;51.744;7.190;2022-08-21T05:03:58;101225.49;;;18.52;93.45
27146;BME280;17980;51.744;7.190;2022-08-21T05:06:27;101218.06;;;18.38;94.69
27146;BME280;17980;51.744;7.190;2022-08-21T05:08:56;101219.63;;;18.66;93.62
27146;BME280;17980;51.744;7.190;2022-08-21T05:11:23;101220.01;;;18.48;94.19
27146;BME280;17980;51.744;7.190;2022-08-21T05:13:51;101223.83;;;18.62;93.70
27146;BME280;17980;51.744;7.190;2022-08-21T05:16:18;101221.91;;;18.78;93.06
27146;BME280;17980;51.744;7.190;2022-08-21T05:18:46;101227.03;;;18.70;93.52
27146;BME280;17980;51.744;7.190;2022-08-21T05:21:15;101229.11;;;18.83;92.82
27146;BME280;17980;51.744;7.190;2022-08-21T05:23:42;101227.53;;;18.84;92.73
27146;BME280;17980;51.744;7.190;2022-08-21T05:26:09;101228.03;;;18.84;92.85
27146;BME280;17980;51.744;7.190;2022-08-21T05:28:37;101226.09;;;19.03;91.91
27146;BME280;17980;51.744;7.190;2022-08-21T05:31:06;101228.77;;;19.22;91.21
27146;BME280;17980;51.744;7.190;2022-08-21T05:33:33;101227.25;;;19.20;91.14
27146;BME280;17980;51.744;7.190;2022-08-21T05:36:00;101228.74;;;19.12;91.76
27146;BME280;17980;51.744;7.190;2022-08-21T05:38:27;101228.52;;;19.28;91.48
27146;BME280;17980;51.744;7.190;2022-08-21T05:43:32;101226.02;;;19.44;90.59
27146;BME280;17980;51.744;7.190;2022-08-21T05:46:01;101224.23;;;19.25;91.75
27146;BME280;17980;51.744;7.190;2022-08-21T05:51:07;101233.52;;;19.29;91.92
27146;BME280;17980;51.744;7.190;2022-08-21T05:53:35;101232.30;;;19.16;93.10
27146;BME280;17980;51.744;7.190;2022-08-21T05:56:05;101229.63;;;19.44;92.22
27146;BME280;17980;51.744;7.190;2022-08-21T05:58:33;101224.95;;;19.34;93.36
27146;BME280;17980;51.744;7.190;2022-08-21T06:01:02;101227.08;;;19.54;93.33
27146;BME280;17980;51.744;7.190;2022-08-21T06:03:34;101229.66;;;19.66;92.71
27146;BME280;17980;51.744;7.190;2022-08-21T06:06:04;101233.65;;;19.74;92.16
27146;BME280;17980;51.744;7.190;2022-08-21T06:08:32;101228.72;;;19.91;91.28
27146;BME280;17980;51.744;7.190;2022-08-21T06:11:00;101221.23;;;20.13;90.15
27146;BME280;17980;51.744;7.190;2022-08-21T06:13:28;101216.52;;;20.25;89.38
27146;BME280;17980;51.744;7.190;2022-08-21T06:16:04;101216.29;;;20.37;89.40
27146;BME280;17980;51.744;7.190;2022-08-21T06:18:33;101213.82;;;20.38;89.28
27146;BME280;17980;51.744;7.190;2022-08-21T06:21:01;101214.83;;;20.41;89.13
27146;BME280;17980;51.744;7.190;2022-08-21T06:23:28;101218.41;;;20.53;89.34
27146;BME280;17980;51.744;7.190;2022-08-21T06:25:56;101212.59;;;20.65;88.78
27146;BME280;17980;51.744;7.190;2022-08-21T06:31:00;101217.25;;;21.24;86.37
27146;BME280;17980;51.744;7.190;2022-08-21T06:33:28;101217.58;;;21.01;86.80
27146;BME280;17980;51.744;7.190;2022-08-21T06:35:55;101217.16;;;21.28;86.13
27146;BME280;17980;51.744;7.190;2022-08-21T06:38:22;101221.65;;;20.98;87.66
27146;BME280;17980;51.744;7.190;2022-08-21T06:43:26;101210.98;;;21.39;86.71
27146;BME280;17980;51.744;7.190;2022-08-21T06:45:54;101214.14;;;21.23;87.44
27146;BME280;17980;51.744;7.190;2022-08-21T06:51:01;101210.63;;;21.82;85.53
27146;BME280;17980;51.744;7.190;2022-08-21T06:53:29;101210.40;;;21.77;84.28
27146;BME280;17980;51.744;7.190;2022-08-21T06:55:56;101207.73;;;21.80;84.13
27146;BME280;17980;51.744;7.190;2022-08-21T06:58:23;101200.89;;;22.09;83.15
27146;BME280;17980;51.744;7.190;2022-08-21T07:00:52;101202.63;;;21.90;82.80
27146;BME280;17980;51.744;7.190;2022-08-21T07:03:22;101201.30;;;22.19;82.31
27146;BME280;17980;51.744;7.190;2022-08-21T07:05:50;101202.27;;;22.36;81.41
27146;BME280;17980;51.744;7.190;2022-08-21T07:08:18;101197.89;;;22.24;81.57
27146;BME280;17980;51.744;7.190;2022-08-21T07:10:46;101196.92;;;22.70;80.13
27146;BME280;17980;51.744;7.190;2022-08-21T07:15:51;101190.45;;;23.29;77.68
27146;BME280;17980;51.744;7.190;2022-08-21T07:20:56;101188.34;;;26.61;66.85
27146;BME280;17980;51.744;7.190;2022-08-21T07:23:25;101186.67;;;29.65;57.04
27146;BME280;17980;51.744;7.190;2022-08-21T07:25:53;101180.09;;;30.67;52.99
27146;BME280;17980;51.744;7.190;2022-08-21T07:30:58;101184.88;;;31.53;51.53
27146;BME280;17980;51.744;7.190;2022-08-21T07:33:28;101178.93;;;33.92;47.25
27146;BME280;17980;51.744;7.190;2022-08-21T07:35:56;101179.09;;;34.35;44.73
27146;BME280;17980;51.744;7.190;2022-08-21T07:38:24;101183.66;;;33.67;45.39
27146;BME280;17980;51.744;7.190;2022-08-21T07:43:30;101189.63;;;33.63;46.20
27146;BME280;17980;51.744;7.190;2022-08-21T07:45:59;101188.32;;;36.36;41.77
27146;BME280;17980;51.744;7.190;2022-08-21T07:51:08;101185.95;;;36.83;40.11
27146;BME280;17980;51.744;7.190;2022-08-21T07:53:37;101186.69;;;38.18;38.38
27146;BME280;17980;51.744;7.190;2022-08-21T07:56:06;101191.27;;;37.97;39.42
27146;BME280;17980;51.744;7.190;2022-08-21T08:01:11;101196.76;;;35.57;39.61
27146;BME280;17980;51.744;7.190;2022-08-21T08:03:39;101191.16;;;35.90;40.17
27146;BME280;17980;51.744;7.190;2022-08-21T08:06:07;101190.58;;;35.14;40.97
27146;BME280;17980;51.744;7.190;2022-08-21T08:08:36;101192.69;;;35.98;39.57
27146;BME280;17980;51.744;7.190;2022-08-21T08:11:04;101195.41;;;35.35;41.46
27146;BME280;17980;51.744;7.190;2022-08-21T08:13:31;101193.47;;;34.90;41.66
27146;BME280;17980;51.744;7.190;2022-08-21T08:15:58;101192.82;;;36.82;39.53
27146;BME280;17980;51.744;7.190;2022-08-21T08:21:03;101197.50;;;35.84;39.96
27146;BME280;17980;51.744;7.190;2022-08-21T08:23:31;101199.09;;;35.14;40.79
27146;BME280;17980;51.744;7.190;2022-08-21T08:25:59;101190.81;;;36.82;39.47
27146;BME280;17980;51.744;7.190;2022-08-21T08:31:05;101189.81;;;37.40;38.67
27146;BME280;17980;51.744;7.190;2022-08-21T08:33:33;101197.34;;;38.04;37.88
27146;BME280;17980;51.744;7.190;2022-08-21T08:36:00;101195.91;;;36.69;38.64
27146;BME280;17980;51.744;7.190;2022-08-21T08:38:27;101198.18;;;36.09;39.72
27146;BME280;17980;51.744;7.190;2022-08-21T08:43:35;101187.81;;;34.63;40.57
27146;BME280;17980;51.744;7.190;2022-08-21T08:48:47;101194.52;;;37.33;37.87
27146;BME280;17980;51.744;7.190;2022-08-21T08:51:18;101199.09;;;36.20;39.34
27146;BME280;17980;51.744;7.190;2022-08-21T08:56:29;101199.97;;;35.69;40.12
27146;BME280;17980;51.744;7.190;2022-08-21T09:01:36;101187.81;;;38.40;36.36
27146;BME280;17980;51.744;7.190;2022-08-21T09:04:04;101191.84;;;39.17;36.18
27146;BME280;17980;51.744;7.190;2022-08-21T09:06:49;101184.98;;;36.32;38.85
27146;BME280;17980;51.744;7.190;2022-08-21T09:09:27;101194.65;;;35.48;40.08
27146;BME280;17980;51.744;7.190;2022-08-21T09:14:49;101193.10;;;39.83;35.61
27146;BME280;17980;51.744;7.190;2022-08-21T09:17:25;101194.50;;;38.55;36.10
27146;BME280;17980;51.744;7.190;2022-08-21T09:22:40;101189.47;;;36.35;38.57
27146;BME280;17980;51.744;7.190;2022-08-21T09:27:48;101184.12;;;37.40;37.35
27146;BME280;17980;51.744;7.190;2022-08-21T09:30:18;101191.38;;;35.74;38.70
27146;BME280;17980;51.744;7.190;2022-08-21T09:32:47;101187.59;;;33.71;40.97
27146;BME280;17980;51.744;7.190;2022-08-21T09:37:57;101180.66;;;36.04;38.50
27146;BME280;17980;51.744;7.190;2022-08-21T09:43:14;101180.35;;;35.89;37.22
27146;BME280;17980;51.744;7.190;2022-08-21T09:45:41;101176.80;;;35.45;38.00
27146;BME280;17980;51.744;7.190;2022-08-21T09:48:11;101181.33;;;39.06;35.21
27146;BME280;17980;51.744;7.190;2022-08-21T09:50:40;101178.53;;;38.14;35.51
27146;BME280;17980;51.744;7.190;2022-08-21T09:53:15;101173.59;;;38.69;35.31
27146;BME280;17980;51.744;7.190;2022-08-21T09:55:51;101169.30;;;36.90;36.66
27146;BME280;17980;51.744;7.190;2022-08-21T09:58:38;101174.31;;;36.10;37.62
27146;BME280;17980;51.744;7.190;2022-08-21T10:01:11;101178.37;;;33.53;40.07
27146;BME280;17980;51.744;7.190;2022-08-21T10:03:36;101169.55;;;36.77;37.28
27146;BME280;17980;51.744;7.190;2022-08-21T10:06:08;101166.66;;;37.33;36.48
27146;BME280;17980;51.744;7.190;2022-08-21T10:08:39;101175.37;;;36.72;37.40
27146;BME280;17980;51.744;7.190;2022-08-21T10:11:09;101167.45;;;36.97;35.92
27146;BME280;17980;51.744;7.190;2022-08-21T10:16:30;101168.95;;;34.53;39.00
27146;BME280;17980;51.744;7.190;2022-08-21T10:21:46;101164.29;;;30.13;44.18
27146;BME280;17980;51.744;7.190;2022-08-21T10:24:17;101173.84;;;28.53;47.32
27146;BME280;17980;51.744;7.190;2022-08-21T10:26:50;101164.38;;;27.83;49.13
27146;BME280;17980;51.744;7.190;2022-08-21T10:29:30;101159.32;;;28.17;49.16
27146;BME280;17980;51.744;7.190;2022-08-21T10:31:57;101153.50;;;28.43;48.03
27146;BME280;17980;51.744;7.190;2022-08-21T10:34:32;101153.50;;;28.43;48.03
27146;BME280;17980;51.744;7.190;2022-08-21T10:39:52;101150.59;;;28.77;48.59
27146;BME280;17980;51.744;7.190;2022-08-21T10:42:33;101153.14;;;28.59;48.59
27146;BME280;17980;51.744;7.190;2022-08-21T10:47:48;101153.05;;;28.51;49.06
27146;BME280;17980;51.744;7.190;2022-08-21T10:50:25;101148.31;;;28.74;48.78
27146;BME280;17980;51.744;7.190;2022-08-21T10:53:05;101145.73;;;27.75;50.58
27146;BME280;17980;51.744;7.190;2022-08-21T10:55:39;101139.47;;;28.43;49.61
27146;BME280;17980;51.744;7.190;2022-08-21T11:00:47;101147.71;;;27.77;51.22
27146;BME280;17980;51.744;7.190;2022-08-21T11:03:21;101151.19;;;27.98;49.64
27146;BME280;17980;51.744;7.190;2022-08-21T11:05:51;101149.20;;;28.36;49.57
27146;BME280;17980;51.744;7.190;2022-08-21T11:11:01;101130.34;;;28.11;50.30
27146;BME280;17980;51.744;7.190;2022-08-21T11:13:34;101131.08;;;28.46;49.44
27146;BME280;17980;51.744;7.190;2022-08-21T11:16:05;101130.02;;;28.49;49.59
27146;BME280;17980;51.744;7.190;2022-08-21T11:18:36;101140.12;;;28.50;49.67
27146;BME280;17980;51.744;7.190;2022-08-21T11:21:14;101134.56;;;28.33;49.18
27146;BME280;17980;51.744;7.190;2022-08-21T11:31:34;101131.92;;;28.66;49.22
27146;BME280;17980;51.744;7.190;2022-08-21T11:34:14;101134.61;;;28.78;48.99
27146;BME280;17980;51.744;7.190;2022-08-21T11:39:25;101135.52;;;28.03;50.04
27146;BME280;17980;51.744;7.190;2022-08-21T11:41:59;101140.95;;;28.48;49.90
27146;BME280;17980;51.744;7.190;2022-08-21T11:46:57;101135.30;;;29.15;48.30
27146;BME280;17980;51.744;7.190;2022-08-21T11:52:34;101129.91;;;28.22;49.27
27146;BME280;17980;51.744;7.190;2022-08-21T11:57:51;101139.81;;;28.69;49.45
27146;BME280;17980;51.744;7.190;2022-08-21T12:00:22;101143.45;;;28.89;49.13
27146;BME280;17980;51.744;7.190;2022-08-21T12:02:52;101148.11;;;29.06;48.45
27146;BME280;17980;51.744;7.190;2022-08-21T12:05:29;101144.17;;;28.79;48.32
27146;BME280;17980;51.744;7.190;2022-08-21T12:08:04;101139.17;;;28.84;48.69
27146;BME280;17980;51.744;7.190;2022-08-21T12:13:23;101133.34;;;29.78;47.50
27146;BME280;17980;51.744;7.190;2022-08-21T12:15:51;101140.03;;;29.69;46.92
27146;BME280;17980;51.744;7.190;2022-08-21T12:18:24;101127.22;;;29.83;46.61
27146;BME280;17980;51.744;7.190;2022-08-21T12:23:47;101125.88;;;29.26;47.98
27146;BME280;17980;51.744;7.190;2022-08-21T12:26:27;101130.68;;;29.06;48.63
27146;BME280;17980;51.744;7.190;2022-08-21T12:29:21;101118.27;;;29.57;47.47
27146;BME280;17980;51.744;7.190;2022-08-21T12:31:59;101121.30;;;28.71;48.58
27146;BME280;17980;51.744;7.190;2022-08-21T12:34:34;101123.88;;;28.75;49.08
27146;BME280;17980;51.744;7.190;2022-08-21T12:39:43;101120.89;;;29.33;47.80
27146;BME280;17980;51.744;7.190;2022-08-21T12:42:16;101117.81;;;29.35;47.50
27146;BME280;17980;51.744;7.190;2022-08-21T12:47:27;101128.33;;;29.50;46.67
27146;BME280;17980;51.744;7.190;2022-08-21T12:49:58;101126.40;;;28.98;47.78
27146;BME280;17980;51.744;7.190;2022-08-21T12:52:33;101120.80;;;28.74;48.49
27146;BME280;17980;51.744;7.190;2022-08-21T12:54:59;101119.28;;;28.44;49.28
27146;BME280;17980;51.744;7.190;2022-08-21T13:00:11;101112.49;;;29.74;46.46
27146;BME280;17980;51.744;7.190;2022-08-21T13:02:43;101117.00;;;28.85;47.85
27146;BME280;17980;51.744;7.190;2022-08-21T13:07:49;101118.10;;;29.11;46.73
27146;BME280;17980;51.744;7.190;2022-08-21T13:10:21;101108.50;;;29.07;45.65
27146;BME280;17980;51.744;7.190;2022-08-21T13:12:49;101111.09;;;30.14;45.02
27146;BME280;17980;51.744;7.190;2022-08-21T13:15:23;101111.09;;;30.14;45.02
27146;BME280;17980;51.744;7.190;2022-08-21T13:21:05;101105.64;;;29.27;46.11
27146;BME280;17980;51.744;7.190;2022-08-21T13:23:33;101105.64;;;29.27;46.11
27146;BME280;17980;51.744;7.190;2022-08-21T13:28:38;101101.40;;;29.24;47.36
27146;BME280;17980;51.744;7.190;2022-08-21T13:31:08;101106.16;;;28.96;47.99
27146;BME280;17980;51.744;7.190;2022-08-21T13:36:18;101096.07;;;29.58;46.31
27146;BME280;17980;51.744;7.190;2022-08-21T13:38:46;101100.70;;;29.39;48.48
27146;BME280;17980;51.744;7.190;2022-08-21T13:43:58;101103.39;;;29.01;47.25
27146;BME280;17980;51.744;7.190;2022-08-21T13:49:05;101095.27;;;29.02;47.21
27146;BME280;17980;51.744;7.190;2022-08-21T13:51:34;101101.72;;;29.03;47.21
27146;BME280;17980;51.744;7.190;2022-08-21T13:54:12;101103.55;;;28.65;47.69
27146;BME280;17980;51.744;7.190;2022-08-21T13:59:10;101094.63;;;28.68;47.31
27146;BME280;17980;51.744;7.190;2022-08-21T14:01:47;101095.92;;;29.12;48.43
27146;BME280;17980;51.744;7.190;2022-08-21T14:06:50;101096.17;;;28.81;46.96
27146;BME280;17980;51.744;7.190;2022-08-21T14:09:24;101096.17;;;28.81;46.96
27146;BME280;17980;51.744;7.190;2022-08-21T14:11:53;101093.17;;;28.02;49.08
27146;BME280;17980;51.744;7.190;2022-08-21T14:14:23;101093.17;;;28.02;49.08
27146;BME280;17980;51.744;7.190;2022-08-21T14:19:21;101095.02;;;28.13;49.15
27146;BME280;17980;51.744;7.190;2022-08-21T14:21:49;101091.42;;;27.81;49.69
27146;BME280;17980;51.744;7.190;2022-08-21T14:24:29;101100.31;;;27.58;49.72
27146;BME280;17980;51.744;7.190;2022-08-21T14:29:36;101093.98;;;27.65;49.49
27146;BME280;17980;51.744;7.190;2022-08-21T14:32:13;101093.21;;;28.04;48.89
27146;BME280;17980;51.744;7.190;2022-08-21T14:34:41;101094.31;;;28.25;49.73
27146;BME280;17980;51.744;7.190;2022-08-21T14:39:45;101088.09;;;27.84;48.58
27146;BME280;17980;51.744;7.190;2022-08-21T14:42:12;101085.11;;;27.54;49.11
27146;BME280;17980;51.744;7.190;2022-08-21T14:44:40;101084.64;;;27.60;49.08
27146;BME280;17980;51.744;7.190;2022-08-21T14:49:46;101083.59;;;28.42;47.88
27146;BME280;17980;51.744;7.190;2022-08-21T14:52:14;101083.05;;;28.20;47.92
27146;BME280;17980;51.744;7.190;2022-08-21T14:54:41;101077.17;;;28.91;46.32
27146;BME280;17980;51.744;7.190;2022-08-21T14:59:47;101077.59;;;29.34;45.61
27146;BME280;17980;51.744;7.190;2022-08-21T15:02:14;101067.07;;;29.52;45.68
27146;BME280;17980;51.744;7.190;2022-08-21T15:04:43;101065.56;;;29.39;45.79
27146;BME280;17980;51.744;7.190;2022-08-21T15:07:10;101073.23;;;29.86;45.46
27146;BME280;17980;51.744;7.190;2022-08-21T15:12:14;101072.23;;;30.05;45.22
27146;BME280;17980;51.744;7.190;2022-08-21T15:14:45;101076.41;;;29.63;45.51
27146;BME280;17980;51.744;7.190;2022-08-21T15:17:13;101085.00;;;29.43;45.62
27146;BME280;17980;51.744;7.190;2022-08-21T15:19:41;101084.27;;;29.26;45.80
27146;BME280;17980;51.744;7.190;2022-08-21T15:22:08;101083.70;;;28.99;46.90
27146;BME280;17980;51.744;7.190;2022-08-21T15:24:35;101075.48;;;29.19;45.60
27146;BME280;17980;51.744;7.190;2022-08-21T15:29:42;101072.66;;;29.19;45.42
27146;BME280;17980;51.744;7.190;2022-08-21T15:32:18;101063.16;;;29.23;45.05
27146;BME280;17980;51.744;7.190;2022-08-21T15:34:46;101076.97;;;29.00;45.33
27146;BME280;17980;51.744;7.190;2022-08-21T15:37:14;101068.97;;;29.14;45.04
27146;BME280;17980;51.744;7.190;2022-08-21T15:42:19;101066.86;;;29.64;45.78
27146;BME280;17980;51.744;7.190;2022-08-21T15:44:47;101065.56;;;29.39;45.07
27146;BME280;17980;51.744;7.190;2022-08-21T15:49:53;101075.23;;;28.66;46.53
27146;BME280;17980;51.744;7.190;2022-08-21T15:52:22;101075.23;;;28.66;46.53
27146;BME280;17980;51.744;7.190;2022-08-21T15:54:53;101075.44;;;28.40;46.82
27146;BME280;17980;51.744;7.190;2022-08-21T16:00:00;101076.91;;;28.23;47.31
27146;BME280;17980;51.744;7.190;2022-08-21T16:02:32;101070.95;;;28.20;47.71
27146;BME280;17980;51.744;7.190;2022-08-21T16:04:59;101069.33;;;28.46;47.30
27146;BME280;17980;51.744;7.190;2022-08-21T16:07:27;101070.16;;;28.66;47.13
27146;BME280;17980;51.744;7.190;2022-08-21T16:12:34;101070.45;;;28.94;46.73
27146;BME280;17980;51.744;7.190;2022-08-21T16:15:06;101069.12;;;28.75;46.39
27146;BME280;17980;51.744;7.190;2022-08-21T16:20:15;101071.63;;;28.71;46.59
27146;BME280;17980;51.744;7.190;2022-08-21T16:22:43;101068.53;;;28.50;46.10
27146;BME280;17980;51.744;7.190;2022-08-21T16:25:11;101064.41;;;28.78;45.86
27146;BME280;17980;51.744;7.190;2022-08-21T16:30:18;101067.59;;;28.40;46.72
27146;BME280;17980;51.744;7.190;2022-08-21T16:32:46;101076.38;;;28.68;46.65
27146;BME280;17980;51.744;7.190;2022-08-21T16:35:16;101077.10;;;28.61;47.42
27146;BME280;17980;51.744;7.190;2022-08-21T16:37:44;101073.10;;;28.79;48.14
27146;BME280;17980;51.744;7.190;2022-08-21T16:40:13;101069.41;;;28.51;47.42